sensor_id;sensor_type;location;lat;lon;timestamp;P1;durP1;ratioP1;P2;durP2;ratioP2
46334;SDS011;32051;48.882;9.210;2022-11-18T00:01:44;0.40;;;0.40;;
46334;SDS011;32051;48.882;9.210;2022-11-18T00:04:10;1.42;;;0.75;;
46334;SDS011;32051;48.882;9.210;2022-11-18T00:06:36;2.55;;;0.68;;
46334;SDS011;32051;48.882;9.210;2022-11-18T00:09:04;0.95;;;0.77;;
46334;SDS011;32051;48.882;9.210;2022-11-18T00:11:30;4.78;;;0.80;;
46334;SDS011;32051;48.882;9.210;2022-11-18T00:14:19;2.63;;;0.70;;
46334;SDS011;32051;48.882;9.210;2022-11-18T00:16:51;2.38;;;0.73;;
46334;SDS011;32051;48.882;9.210;2022-11-18T00:19:18;0.63;;;0.52;;
46334;SDS011;32051;48.882;9.210;2022-11-18T00:21:44;3.35;;;0.70;;
46334;SDS011;32051;48.882;9.210;2022-11-18T00:24:10;1.23;;;0.55;;
46334;SDS011;32051;48.882;9.210;2022-11-18T00:26:36;0.77;;;0.65;;
46334;SDS011;32051;48.882;9.210;2022-11-18T00:29:04;2.80;;;0.50;;
46334;SDS011;32051;48.882;9.210;2022-11-18T00:31:30;1.05;;;0.60;;
46334;SDS011;32051;48.882;9.210;2022-11-18T00:33:56;2.47;;;1.85;;
46334;SDS011;32051;48.882;9.210;2022-11-18T00:36:22;1.17;;;0.50;;
46334;SDS011;32051;48.882;9.210;2022-11-18T00:38:48;0.77;;;0.65;;
46334;SDS011;32051;48.882;9.210;2022-11-18T00:41:14;2.75;;;0.75;;
46334;SDS011;32051;48.882;9.210;2022-11-18T00:43:41;2.28;;;0.80;;
46334;SDS011;32051;48.882;9.210;2022-11-18T00:46:08;1.23;;;0.65;;
46334;SDS011;32051;48.882;9.210;2022-11-18T00:48:35;0.73;;;0.50;;
46334;SDS011;32051;48.882;9.210;2022-11-18T00:51:09;9.52;;;0.85;;
46334;SDS011;32051;48.882;9.210;2022-11-18T00:53:35;4.03;;;0.70;;
46334;SDS011;32051;48.882;9.210;2022-11-18T00:56:01;2.35;;;2.13;;
46334;SDS011;32051;48.882;9.210;2022-11-18T00:58:27;1.45;;;0.50;;
46334;SDS011;32051;48.882;9.210;2022-11-18T01:00:54;0.80;;;0.80;;
46334;SDS011;32051;48.882;9.210;2022-11-18T01:03:20;0.50;;;0.50;;
46334;SDS011;32051;48.882;9.210;2022-11-18T01:05:46;0.60;;;0.60;;
46334;SDS011;32051;48.882;9.210;2022-11-18T01:08:13;0.50;;;0.50;;
46334;SDS011;32051;48.882;9.210;2022-11-18T01:10:39;0.70;;;0.70;;
46334;SDS011;32051;48.882;9.210;2022-11-18T01:13:06;1.35;;;0.50;;
46334;SDS011;32051;48.882;9.210;2022-11-18T01:18:11;1.45;;;0.65;;
46334;SDS011;32051;48.882;9.210;2022-11-18T01:20:37;1.13;;;0.75;;
46334;SDS011;32051;48.882;9.210;2022-11-18T01:23:03;0.40;;;0.40;;
46334;SDS011;32051;48.882;9.210;2022-11-18T01:25:29;0.60;;;0.60;;
46334;SDS011;32051;48.882;9.210;2022-11-18T01:27:55;0.73;;;0.50;;
46334;SDS011;32051;48.882;9.210;2022-11-18T01:30:22;0.73;;;0.63;;
46334;SDS011;32051;48.882;9.210;2022-11-18T01:32:48;0.80;;;0.60;;
46334;SDS011;32051;48.882;9.210;2022-11-18T01:35:14;0.65;;;0.65;;
46334;SDS011;32051;48.882;9.210;2022-11-18T01:37:40;3.38;;;0.60;;
46334;SDS011;32051;48.882;9.210;2022-11-18T01:40:07;0.50;;;0.50;;
46334;SDS011;32051;48.882;9.210;2022-11-18T01:42:33;2.13;;;0.70;;
46334;SDS011;32051;48.882;9.210;2022-11-18T01:47:27;0.40;;;0.40;;
46334;SDS011;32051;48.882;9.210;2022-11-18T01:49:55;1.35;;;0.52;;
46334;SDS011;32051;48.882;9.210;2022-11-18T01:52:21;0.57;;;0.57;;
46334;SDS011;32051;48.882;9.210;2022-11-18T01:54:49;0.50;;;0.50;;
46334;SDS011;32051;48.882;9.210;2022-11-18T01:57:17;5.70;;;0.95;;
46334;SDS011;32051;48.882;9.210;2022-11-18T01:59:45;2.22;;;0.55;;
46334;SDS011;32051;48.882;9.210;2022-11-18T02:02:13;0.40;;;0.40;;
46334;SDS011;32051;48.882;9.210;2022-11-18T02:04:40;0.88;;;0.80;;
46334;SDS011;32051;48.882;9.210;2022-11-18T02:07:06;0.52;;;0.40;;
46334;SDS011;32051;48.882;9.210;2022-11-18T02:09:33;1.15;;;0.68;;
46334;SDS011;32051;48.882;9.210;2022-11-18T02:11:59;0.40;;;0.40;;
46334;SDS011;32051;48.882;9.210;2022-11-18T02:14:27;0.43;;;0.40;;
46334;SDS011;32051;48.882;9.210;2022-11-18T02:30:04;0.50;;;0.40;;
46334;SDS011;32051;48.882;9.210;2022-11-18T02:35:02;3.72;;;0.50;;
46334;SDS011;32051;48.882;9.210;2022-11-18T02:40:03;2.75;;;0.50;;
46334;SDS011;32051;48.882;9.210;2022-11-18T02:42:30;0.85;;;0.60;;
46334;SDS011;32051;48.882;9.210;2022-11-18T02:44:59;0.70;;;0.40;;
46334;SDS011;32051;48.882;9.210;2022-11-18T02:47:26;1.08;;;0.40;;
46334;SDS011;32051;48.882;9.210;2022-11-18T02:49:54;1.65;;;0.52;;
46334;SDS011;32051;48.882;9.210;2022-11-18T02:52:22;1.08;;;0.63;;
46334;SDS011;32051;48.882;9.210;2022-11-18T02:54:49;0.40;;;0.40;;
46334;SDS011;32051;48.882;9.210;2022-11-18T02:57:16;0.73;;;0.68;;
46334;SDS011;32051;48.882;9.210;2022-11-18T02:59:44;0.70;;;0.40;;
46334;SDS011;32051;48.882;9.210;2022-11-18T03:02:14;1.58;;;0.50;;
46334;SDS011;32051;48.882;9.210;2022-11-18T03:04:40;3.28;;;0.47;;
46334;SDS011;32051;48.882;9.210;2022-11-18T03:07:10;4.57;;;0.60;;
46334;SDS011;32051;48.882;9.210;2022-11-18T03:09:38;1.20;;;0.80;;
46334;SDS011;32051;48.882;9.210;2022-11-18T03:17:10;0.63;;;0.35;;
46334;SDS011;32051;48.882;9.210;2022-11-18T03:22:18;1.60;;;0.45;;
46334;SDS011;32051;48.882;9.210;2022-11-18T03:24:50;1.23;;;0.65;;
46334;SDS011;32051;48.882;9.210;2022-11-18T03:27:18;0.50;;;0.50;;
46334;SDS011;32051;48.882;9.210;2022-11-18T03:29:47;1.92;;;0.35;;
46334;SDS011;32051;48.882;9.210;2022-11-18T03:32:16;0.65;;;0.60;;
46334;SDS011;32051;48.882;9.210;2022-11-18T03:34:48;2.42;;;1.15;;
46334;SDS011;32051;48.882;9.210;2022-11-18T03:37:16;0.47;;;0.47;;
46334;SDS011;32051;48.882;9.210;2022-11-18T03:39:45;0.82;;;0.30;;
46334;SDS011;32051;48.882;9.210;2022-11-18T03:42:15;0.40;;;0.40;;
46334;SDS011;32051;48.882;9.210;2022-11-18T03:44:46;0.40;;;0.40;;
46334;SDS011;32051;48.882;9.210;2022-11-18T03:47:16;1.50;;;0.63;;
46334;SDS011;32051;48.882;9.210;2022-11-18T03:49:51;0.93;;;0.57;;
46334;SDS011;32051;48.882;9.210;2022-11-18T03:52:19;1.25;;;0.30;;
46334;SDS011;32051;48.882;9.210;2022-11-18T03:54:47;0.55;;;0.50;;
46334;SDS011;32051;48.882;9.210;2022-11-18T03:57:23;1.27;;;0.73;;
46334;SDS011;32051;48.882;9.210;2022-11-18T03:59:51;2.72;;;0.65;;
46334;SDS011;32051;48.882;9.210;2022-11-18T04:02:22;1.23;;;0.52;;
46334;SDS011;32051;48.882;9.210;2022-11-18T04:04:50;0.30;;;0.30;;
46334;SDS011;32051;48.882;9.210;2022-11-18T04:10:21;1.50;;;0.85;;
46334;SDS011;32051;48.882;9.210;2022-11-18T04:12:55;0.60;;;0.50;;
46334;SDS011;32051;48.882;9.210;2022-11-18T04:15:23;0.73;;;0.40;;
46334;SDS011;32051;48.882;9.210;2022-11-18T04:17:49;1.00;;;0.40;;
46334;SDS011;32051;48.882;9.210;2022-11-18T04:20:16;1.35;;;0.50;;
46334;SDS011;32051;48.882;9.210;2022-11-18T04:22:43;1.48;;;0.50;;
46334;SDS011;32051;48.882;9.210;2022-11-18T04:25:09;0.82;;;0.20;;
46334;SDS011;32051;48.882;9.210;2022-11-18T04:27:35;1.25;;;0.45;;
46334;SDS011;32051;48.882;9.210;2022-11-18T04:30:01;4.75;;;0.50;;
46334;SDS011;32051;48.882;9.210;2022-11-18T04:32:28;2.35;;;0.47;;
46334;SDS011;32051;48.882;9.210;2022-11-18T04:34:54;2.20;;;0.55;;
46334;SDS011;32051;48.882;9.210;2022-11-18T04:37:20;0.55;;;0.40;;
46334;SDS011;32051;48.882;9.210;2022-11-18T04:39:46;0.52;;;0.30;;
46334;SDS011;32051;48.882;9.210;2022-11-18T04:42:12;0.40;;;0.30;;
46334;SDS011;32051;48.882;9.210;2022-11-18T04:44:38;0.32;;;0.30;;
46334;SDS011;32051;48.882;9.210;2022-11-18T04:47:05;1.63;;;0.40;;
46334;SDS011;32051;48.882;9.210;2022-11-18T04:49:32;0.35;;;0.30;;
46334;SDS011;32051;48.882;9.210;2022-11-18T04:51:58;1.70;;;0.40;;
46334;SDS011;32051;48.882;9.210;2022-11-18T04:54:25;2.60;;;0.60;;
46334;SDS011;32051;48.882;9.210;2022-11-18T04:56:51;3.55;;;0.63;;
46334;SDS011;32051;48.882;9.210;2022-11-18T04:59:18;0.88;;;0.43;;
46334;SDS011;32051;48.882;9.210;2022-11-18T05:01:45;1.17;;;0.47;;
46334;SDS011;32051;48.882;9.210;2022-11-18T05:04:12;0.65;;;0.45;;
46334;SDS011;32051;48.882;9.210;2022-11-18T05:06:38;0.45;;;0.38;;
46334;SDS011;32051;48.882;9.210;2022-11-18T05:09:04;0.85;;;0.38;;
46334;SDS011;32051;48.882;9.210;2022-11-18T05:11:30;0.25;;;0.25;;
46334;SDS011;32051;48.882;9.210;2022-11-18T05:14:15;1.25;;;0.30;;
46334;SDS011;32051;48.882;9.210;2022-11-18T05:16:41;0.30;;;0.30;;
46334;SDS011;32051;48.882;9.210;2022-11-18T05:19:08;0.30;;;0.30;;
46334;SDS011;32051;48.882;9.210;2022-11-18T05:21:35;4.80;;;0.43;;
46334;SDS011;32051;48.882;9.210;2022-11-18T05:24:01;0.30;;;0.30;;
46334;SDS011;32051;48.882;9.210;2022-11-18T05:26:27;0.55;;;0.40;;
46334;SDS011;32051;48.882;9.210;2022-11-18T05:28:53;0.68;;;0.30;;
46334;SDS011;32051;48.882;9.210;2022-11-18T05:31:20;0.50;;;0.50;;
46334;SDS011;32051;48.882;9.210;2022-11-18T05:33:46;0.57;;;0.38;;
46334;SDS011;32051;48.882;9.210;2022-11-18T05:36:13;0.77;;;0.77;;
46334;SDS011;32051;48.882;9.210;2022-11-18T05:38:40;4.28;;;0.38;;
46334;SDS011;32051;48.882;9.210;2022-11-18T05:41:06;0.35;;;0.35;;
46334;SDS011;32051;48.882;9.210;2022-11-18T05:43:33;0.20;;;0.20;;
46334;SDS011;32051;48.882;9.210;2022-11-18T05:45:59;0.40;;;0.38;;
46334;SDS011;32051;48.882;9.210;2022-11-18T05:48:26;0.20;;;0.20;;
46334;SDS011;32051;48.882;9.210;2022-11-18T05:50:52;0.20;;;0.20;;
46334;SDS011;32051;48.882;9.210;2022-11-18T05:53:20;1.00;;;0.38;;
46334;SDS011;32051;48.882;9.210;2022-11-18T05:58:12;0.40;;;0.40;;
46334;SDS011;32051;48.882;9.210;2022-11-18T06:00:38;3.15;;;0.30;;
46334;SDS011;32051;48.882;9.210;2022-11-18T06:03:12;0.73;;;0.30;;
46334;SDS011;32051;48.882;9.210;2022-11-18T06:05:40;0.98;;;0.40;;
46334;SDS011;32051;48.882;9.210;2022-11-18T06:08:06;0.45;;;0.40;;
46334;SDS011;32051;48.882;9.210;2022-11-18T06:10:34;3.83;;;0.32;;
46334;SDS011;32051;48.882;9.210;2022-11-18T06:13:02;0.80;;;0.57;;
46334;SDS011;32051;48.882;9.210;2022-11-18T06:15:37;0.47;;;0.47;;
46334;SDS011;32051;48.882;9.210;2022-11-18T06:18:06;0.50;;;0.50;;
46334;SDS011;32051;48.882;9.210;2022-11-18T06:20:34;0.75;;;0.38;;
46334;SDS011;32051;48.882;9.210;2022-11-18T06:23:01;0.45;;;0.45;;
46334;SDS011;32051;48.882;9.210;2022-11-18T06:25:27;0.30;;;0.30;;
46334;SDS011;32051;48.882;9.210;2022-11-18T06:27:53;4.75;;;1.25;;
46334;SDS011;32051;48.882;9.210;2022-11-18T06:30:21;0.90;;;0.68;;
46334;SDS011;32051;48.882;9.210;2022-11-18T06:32:47;0.57;;;0.50;;
46334;SDS011;32051;48.882;9.210;2022-11-18T06:35:13;1.17;;;0.40;;
46334;SDS011;32051;48.882;9.210;2022-11-18T06:37:39;0.22;;;0.22;;
46334;SDS011;32051;48.882;9.210;2022-11-18T06:40:06;1.48;;;0.38;;
46334;SDS011;32051;48.882;9.210;2022-11-18T06:42:32;0.85;;;0.45;;
46334;SDS011;32051;48.882;9.210;2022-11-18T06:45:17;0.40;;;0.40;;
46334;SDS011;32051;48.882;9.210;2022-11-18T06:47:43;0.40;;;0.40;;
46334;SDS011;32051;48.882;9.210;2022-11-18T06:50:09;1.88;;;0.35;;
46334;SDS011;32051;48.882;9.210;2022-11-18T06:52:35;0.65;;;0.40;;
46334;SDS011;32051;48.882;9.210;2022-11-18T06:55:01;0.65;;;0.65;;
46334;SDS011;32051;48.882;9.210;2022-11-18T06:57:30;2.85;;;0.60;;
46334;SDS011;32051;48.882;9.210;2022-11-18T06:59:56;1.08;;;0.98;;
46334;SDS011;32051;48.882;9.210;2022-11-18T07:02:22;0.50;;;0.50;;
46334;SDS011;32051;48.882;9.210;2022-11-18T07:04:48;0.70;;;0.70;;
46334;SDS011;32051;48.882;9.210;2022-11-18T07:07:14;1.38;;;0.60;;
46334;SDS011;32051;48.882;9.210;2022-11-18T07:09:40;0.50;;;0.50;;
46334;SDS011;32051;48.882;9.210;2022-11-18T07:12:06;4.05;;;0.70;;
46334;SDS011;32051;48.882;9.210;2022-11-18T07:14:32;1.38;;;0.82;;
46334;SDS011;32051;48.882;9.210;2022-11-18T07:16:59;3.60;;;0.90;;
46334;SDS011;32051;48.882;9.210;2022-11-18T07:19:25;0.88;;;0.82;;
46334;SDS011;32051;48.882;9.210;2022-11-18T07:21:51;2.55;;;0.93;;
46334;SDS011;32051;48.882;9.210;2022-11-18T07:24:17;1.20;;;0.60;;
46334;SDS011;32051;48.882;9.210;2022-11-18T07:26:43;3.10;;;0.57;;
46334;SDS011;32051;48.882;9.210;2022-11-18T07:29:09;0.60;;;0.38;;
46334;SDS011;32051;48.882;9.210;2022-11-18T07:31:35;1.00;;;0.90;;
46334;SDS011;32051;48.882;9.210;2022-11-18T07:34:03;0.50;;;0.50;;
46334;SDS011;32051;48.882;9.210;2022-11-18T07:36:29;0.68;;;0.68;;
46334;SDS011;32051;48.882;9.210;2022-11-18T07:38:59;2.90;;;0.70;;
46334;SDS011;32051;48.882;9.210;2022-11-18T07:41:26;0.40;;;0.40;;
46334;SDS011;32051;48.882;9.210;2022-11-18T07:43:53;0.50;;;0.50;;
46334;SDS011;32051;48.882;9.210;2022-11-18T07:46:20;0.63;;;0.60;;
46334;SDS011;32051;48.882;9.210;2022-11-18T07:48:51;1.70;;;0.80;;
46334;SDS011;32051;48.882;9.210;2022-11-18T07:51:18;0.50;;;0.50;;
46334;SDS011;32051;48.882;9.210;2022-11-18T07:53:44;0.43;;;0.43;;
46334;SDS011;32051;48.882;9.210;2022-11-18T07:56:11;0.32;;;0.32;;
46334;SDS011;32051;48.882;9.210;2022-11-18T07:58:37;0.60;;;0.60;;
46334;SDS011;32051;48.882;9.210;2022-11-18T08:01:14;0.30;;;0.30;;
46334;SDS011;32051;48.882;9.210;2022-11-18T08:03:40;0.57;;;0.57;;
46334;SDS011;32051;48.882;9.210;2022-11-18T08:06:07;4.25;;;1.60;;
46334;SDS011;32051;48.882;9.210;2022-11-18T08:08:34;1.55;;;1.10;;
46334;SDS011;32051;48.882;9.210;2022-11-18T08:11:00;0.75;;;0.60;;
46334;SDS011;32051;48.882;9.210;2022-11-18T08:13:27;1.17;;;0.52;;
46334;SDS011;32051;48.882;9.210;2022-11-18T08:15:54;0.82;;;0.50;;
46334;SDS011;32051;48.882;9.210;2022-11-18T08:18:20;0.50;;;0.50;;
46334;SDS011;32051;48.882;9.210;2022-11-18T08:20:46;0.85;;;0.50;;
46334;SDS011;32051;48.882;9.210;2022-11-18T08:23:13;0.68;;;0.50;;
46334;SDS011;32051;48.882;9.210;2022-11-18T08:25:40;1.05;;;0.60;;
46334;SDS011;32051;48.882;9.210;2022-11-18T08:28:06;0.80;;;0.80;;
46334;SDS011;32051;48.882;9.210;2022-11-18T08:30:32;2.10;;;2.00;;
46334;SDS011;32051;48.882;9.210;2022-11-18T08:32:59;2.03;;;0.90;;
46334;SDS011;32051;48.882;9.210;2022-11-18T08:35:25;0.65;;;0.65;;
46334;SDS011;32051;48.882;9.210;2022-11-18T08:37:51;4.57;;;0.88;;
46334;SDS011;32051;48.882;9.210;2022-11-18T08:40:17;0.82;;;0.82;;
46334;SDS011;32051;48.882;9.210;2022-11-18T08:42:43;0.75;;;0.75;;
46334;SDS011;32051;48.882;9.210;2022-11-18T08:45:10;0.88;;;0.88;;
46334;SDS011;32051;48.882;9.210;2022-11-18T08:47:36;0.73;;;0.60;;
46334;SDS011;32051;48.882;9.210;2022-11-18T08:50:03;0.55;;;0.55;;
46334;SDS011;32051;48.882;9.210;2022-11-18T08:52:29;0.63;;;0.63;;
46334;SDS011;32051;48.882;9.210;2022-11-18T08:54:55;0.50;;;0.50;;
46334;SDS011;32051;48.882;9.210;2022-11-18T08:57:21;0.88;;;0.88;;
46334;SDS011;32051;48.882;9.210;2022-11-18T08:59:48;2.90;;;0.85;;
46334;SDS011;32051;48.882;9.210;2022-11-18T09:02:14;1.10;;;1.10;;
46334;SDS011;32051;48.882;9.210;2022-11-18T09:04:41;1.13;;;0.85;;
46334;SDS011;32051;48.882;9.210;2022-11-18T09:07:07;3.05;;;0.75;;
46334;SDS011;32051;48.882;9.210;2022-11-18T09:09:33;0.70;;;0.70;;
46334;SDS011;32051;48.882;9.210;2022-11-18T09:11:59;1.58;;;0.90;;
46334;SDS011;32051;48.882;9.210;2022-11-18T09:14:25;0.50;;;0.50;;
46334;SDS011;32051;48.882;9.210;2022-11-18T09:16:51;0.80;;;0.80;;
46334;SDS011;32051;48.882;9.210;2022-11-18T09:19:17;0.68;;;0.68;;
46334;SDS011;32051;48.882;9.210;2022-11-18T09:21:44;1.05;;;1.05;;
46334;SDS011;32051;48.882;9.210;2022-11-18T09:24:10;1.08;;;0.85;;
46334;SDS011;32051;48.882;9.210;2022-11-18T09:26:36;0.90;;;0.70;;
46334;SDS011;32051;48.882;9.210;2022-11-18T09:29:03;0.88;;;0.70;;
46334;SDS011;32051;48.882;9.210;2022-11-18T09:31:29;0.82;;;0.70;;
46334;SDS011;32051;48.882;9.210;2022-11-18T09:33:57;0.70;;;0.65;;
46334;SDS011;32051;48.882;9.210;2022-11-18T09:36:24;1.05;;;0.90;;
46334;SDS011;32051;48.882;9.210;2022-11-18T09:38:50;1.20;;;1.10;;
46334;SDS011;32051;48.882;9.210;2022-11-18T09:44:22;0.80;;;0.80;;
46334;SDS011;32051;48.882;9.210;2022-11-18T09:49:25;0.98;;;0.75;;
46334;SDS011;32051;48.882;9.210;2022-11-18T09:51:51;3.50;;;1.20;;
46334;SDS011;32051;48.882;9.210;2022-11-18T09:54:21;1.90;;;1.35;;
46334;SDS011;32051;48.882;9.210;2022-11-18T09:56:48;4.18;;;1.55;;
46334;SDS011;32051;48.882;9.210;2022-11-18T09:59:16;0.70;;;0.70;;
46334;SDS011;32051;48.882;9.210;2022-11-18T10:01:42;1.05;;;1.05;;
46334;SDS011;32051;48.882;9.210;2022-11-18T10:04:16;1.95;;;1.85;;
46334;SDS011;32051;48.882;9.210;2022-11-18T10:06:43;4.03;;;0.90;;
46334;SDS011;32051;48.882;9.210;2022-11-18T10:11:39;1.15;;;1.10;;
46334;SDS011;32051;48.882;9.210;2022-11-18T10:14:14;0.63;;;0.63;;
46334;SDS011;32051;48.882;9.210;2022-11-18T10:19:21;2.35;;;1.60;;
46334;SDS011;32051;48.882;9.210;2022-11-18T10:24:20;3.28;;;0.80;;
46334;SDS011;32051;48.882;9.210;2022-11-18T10:26:47;1.17;;;0.88;;
46334;SDS011;32051;48.882;9.210;2022-11-18T10:29:18;1.92;;;1.15;;
46334;SDS011;32051;48.882;9.210;2022-11-18T10:32:00;1.10;;;1.00;;
46334;SDS011;32051;48.882;9.210;2022-11-18T10:34:28;1.60;;;0.90;;
46334;SDS011;32051;48.882;9.210;2022-11-18T10:37:01;1.27;;;1.20;;
46334;SDS011;32051;48.882;9.210;2022-11-18T10:39:28;0.85;;;0.85;;
46334;SDS011;32051;48.882;9.210;2022-11-18T10:42:02;1.17;;;1.08;;
46334;SDS011;32051;48.882;9.210;2022-11-18T10:46:59;5.32;;;2.40;;
46334;SDS011;32051;48.882;9.210;2022-11-18T10:49:39;8.73;;;1.13;;
46334;SDS011;32051;48.882;9.210;2022-11-18T10:52:07;4.43;;;0.90;;
46334;SDS011;32051;48.882;9.210;2022-11-18T10:54:35;2.72;;;0.80;;
46334;SDS011;32051;48.882;9.210;2022-11-18T11:01:57;1.05;;;1.00;;
46334;SDS011;32051;48.882;9.210;2022-11-18T11:04:24;0.85;;;0.75;;
46334;SDS011;32051;48.882;9.210;2022-11-18T11:06:51;1.02;;;1.00;;
46334;SDS011;32051;48.882;9.210;2022-11-18T11:17:08;1.67;;;1.08;;
46334;SDS011;32051;48.882;9.210;2022-11-18T11:22:36;0.95;;;0.95;;
46334;SDS011;32051;48.882;9.210;2022-11-18T11:25:05;4.72;;;1.02;;
46334;SDS011;32051;48.882;9.210;2022-11-18T11:30:16;2.90;;;0.80;;
46334;SDS011;32051;48.882;9.210;2022-11-18T11:40:55;0.73;;;0.55;;
46334;SDS011;32051;48.882;9.210;2022-11-18T11:48:51;0.95;;;0.73;;
46334;SDS011;32051;48.882;9.210;2022-11-18T11:56:57;1.35;;;0.77;;
46334;SDS011;32051;48.882;9.210;2022-11-18T11:59:36;0.70;;;0.70;;
46334;SDS011;32051;48.882;9.210;2022-11-18T12:05:14;0.93;;;0.60;;
46334;SDS011;32051;48.882;9.210;2022-11-18T12:07:52;0.85;;;0.82;;
46334;SDS011;32051;48.882;9.210;2022-11-18T12:24:52;0.85;;;0.63;;
46334;SDS011;32051;48.882;9.210;2022-11-18T12:40:03;3.25;;;0.80;;
46334;SDS011;32051;48.882;9.210;2022-11-18T12:50:55;1.75;;;0.60;;
46334;SDS011;32051;48.882;9.210;2022-11-18T12:53:38;1.20;;;1.10;;
46334;SDS011;32051;48.882;9.210;2022-11-18T12:58:35;3.15;;;1.77;;
46334;SDS011;32051;48.882;9.210;2022-11-18T13:01:09;1.95;;;0.90;;
46334;SDS011;32051;48.882;9.210;2022-11-18T13:03:36;2.30;;;0.80;;
46334;SDS011;32051;48.882;9.210;2022-11-18T13:06:06;3.78;;;1.00;;
46334;SDS011;32051;48.882;9.210;2022-11-18T13:08:52;2.30;;;1.02;;
46334;SDS011;32051;48.882;9.210;2022-11-18T13:11:21;1.25;;;0.85;;
46334;SDS011;32051;48.882;9.210;2022-11-18T13:17:27;4.88;;;3.28;;
46334;SDS011;32051;48.882;9.210;2022-11-18T13:20:31;1.90;;;1.40;;
46334;SDS011;32051;48.882;9.210;2022-11-18T13:26:04;1.73;;;1.00;;
46334;SDS011;32051;48.882;9.210;2022-11-18T13:34:20;1.38;;;0.88;;
46334;SDS011;32051;48.882;9.210;2022-11-18T13:36:48;0.93;;;0.65;;
46334;SDS011;32051;48.882;9.210;2022-11-18T13:39:25;0.80;;;0.80;;
46334;SDS011;32051;48.882;9.210;2022-11-18T13:41:59;0.80;;;0.80;;
46334;SDS011;32051;48.882;9.210;2022-11-18T13:44:33;4.47;;;1.05;;
46334;SDS011;32051;48.882;9.210;2022-11-18T13:49:48;1.33;;;0.70;;
46334;SDS011;32051;48.882;9.210;2022-11-18T13:52:41;3.70;;;1.10;;
46334;SDS011;32051;48.882;9.210;2022-11-18T13:55:13;1.58;;;0.85;;
46334;SDS011;32051;48.882;9.210;2022-11-18T13:57:40;2.00;;;0.95;;
46334;SDS011;32051;48.882;9.210;2022-11-18T14:00:14;2.22;;;0.75;;
46334;SDS011;32051;48.882;9.210;2022-11-18T14:02:47;2.40;;;0.63;;
46334;SDS011;32051;48.882;9.210;2022-11-18T14:05:21;6.63;;;0.70;;
46334;SDS011;32051;48.882;9.210;2022-11-18T14:08:17;4.63;;;0.80;;
46334;SDS011;32051;48.882;9.210;2022-11-18T14:10:47;3.63;;;1.35;;
46334;SDS011;32051;48.882;9.210;2022-11-18T14:13:29;10.82;;;1.40;;
46334;SDS011;32051;48.882;9.210;2022-11-18T14:15:58;3.10;;;1.60;;
46334;SDS011;32051;48.882;9.210;2022-11-18T14:18:29;1.27;;;0.70;;
46334;SDS011;32051;48.882;9.210;2022-11-18T14:21:01;1.77;;;1.65;;
46334;SDS011;32051;48.882;9.210;2022-11-18T14:23:32;6.07;;;1.33;;
46334;SDS011;32051;48.882;9.210;2022-11-18T14:26:00;9.40;;;1.00;;
46334;SDS011;32051;48.882;9.210;2022-11-18T14:28:28;0.93;;;0.75;;
46334;SDS011;32051;48.882;9.210;2022-11-18T14:36:45;2.75;;;1.00;;
46334;SDS011;32051;48.882;9.210;2022-11-18T14:39:12;2.53;;;1.40;;
46334;SDS011;32051;48.882;9.210;2022-11-18T14:41:48;2.53;;;1.58;;
46334;SDS011;32051;48.882;9.210;2022-11-18T14:44:15;2.90;;;1.70;;
46334;SDS011;32051;48.882;9.210;2022-11-18T14:46:42;1.65;;;1.30;;
46334;SDS011;32051;48.882;9.210;2022-11-18T14:49:15;3.20;;;2.03;;
46334;SDS011;32051;48.882;9.210;2022-11-18T14:51:43;1.33;;;1.23;;
46334;SDS011;32051;48.882;9.210;2022-11-18T14:54:16;5.68;;;1.90;;
46334;SDS011;32051;48.882;9.210;2022-11-18T14:56:44;1.85;;;1.10;;
46334;SDS011;32051;48.882;9.210;2022-11-18T14:59:12;3.08;;;1.30;;
46334;SDS011;32051;48.882;9.210;2022-11-18T15:01:39;7.35;;;1.65;;
46334;SDS011;32051;48.882;9.210;2022-11-18T15:04:06;4.50;;;1.85;;
46334;SDS011;32051;48.882;9.210;2022-11-18T15:06:32;7.10;;;2.47;;
46334;SDS011;32051;48.882;9.210;2022-11-18T15:08:58;2.05;;;1.95;;
46334;SDS011;32051;48.882;9.210;2022-11-18T15:11:24;5.38;;;1.42;;
46334;SDS011;32051;48.882;9.210;2022-11-18T15:13:50;2.78;;;1.30;;
46334;SDS011;32051;48.882;9.210;2022-11-18T15:16:17;6.90;;;1.92;;
46334;SDS011;32051;48.882;9.210;2022-11-18T15:18:46;4.75;;;1.30;;
46334;SDS011;32051;48.882;9.210;2022-11-18T15:21:13;1.52;;;1.38;;
46334;SDS011;32051;48.882;9.210;2022-11-18T15:23:40;4.25;;;1.67;;
46334;SDS011;32051;48.882;9.210;2022-11-18T15:26:12;2.50;;;1.10;;
46334;SDS011;32051;48.882;9.210;2022-11-18T15:28:48;1.75;;;1.50;;
46334;SDS011;32051;48.882;9.210;2022-11-18T15:31:15;3.10;;;1.17;;
46334;SDS011;32051;48.882;9.210;2022-11-18T15:33:42;5.95;;;1.90;;
46334;SDS011;32051;48.882;9.210;2022-11-18T15:36:12;3.42;;;1.55;;
46334;SDS011;32051;48.882;9.210;2022-11-18T15:38:39;3.20;;;1.75;;
46334;SDS011;32051;48.882;9.210;2022-11-18T15:41:06;1.23;;;1.02;;
46334;SDS011;32051;48.882;9.210;2022-11-18T15:43:32;2.38;;;1.17;;
46334;SDS011;32051;48.882;9.210;2022-11-18T15:45:57;2.47;;;1.08;;
46334;SDS011;32051;48.882;9.210;2022-11-18T15:48:23;4.40;;;1.63;;
46334;SDS011;32051;48.882;9.210;2022-11-18T15:50:49;8.35;;;1.30;;
46334;SDS011;32051;48.882;9.210;2022-11-18T15:53:15;1.73;;;1.55;;
46334;SDS011;32051;48.882;9.210;2022-11-18T15:55:41;6.25;;;1.40;;
46334;SDS011;32051;48.882;9.210;2022-11-18T15:58:07;4.60;;;1.05;;
46334;SDS011;32051;48.882;9.210;2022-11-18T16:00:32;1.65;;;1.40;;
46334;SDS011;32051;48.882;9.210;2022-11-18T16:02:58;4.32;;;1.15;;
46334;SDS011;32051;48.882;9.210;2022-11-18T16:05:24;8.38;;;2.15;;
46334;SDS011;32051;48.882;9.210;2022-11-18T16:07:50;7.40;;;1.20;;
46334;SDS011;32051;48.882;9.210;2022-11-18T16:10:16;6.32;;;1.63;;
46334;SDS011;32051;48.882;9.210;2022-11-18T16:13:01;2.22;;;1.17;;
46334;SDS011;32051;48.882;9.210;2022-11-18T16:15:27;2.47;;;1.17;;
46334;SDS011;32051;48.882;9.210;2022-11-18T16:18:12;4.05;;;1.40;;
46334;SDS011;32051;48.882;9.210;2022-11-18T16:20:39;5.25;;;2.00;;
46334;SDS011;32051;48.882;9.210;2022-11-18T16:23:05;5.47;;;1.80;;
46334;SDS011;32051;48.882;9.210;2022-11-18T16:25:31;3.78;;;1.80;;
46334;SDS011;32051;48.882;9.210;2022-11-18T16:27:57;5.55;;;3.60;;
46334;SDS011;32051;48.882;9.210;2022-11-18T16:30:23;8.02;;;3.13;;
46334;SDS011;32051;48.882;9.210;2022-11-18T16:33:08;5.40;;;2.90;;
46334;SDS011;32051;48.882;9.210;2022-11-18T16:35:35;5.00;;;3.53;;
46334;SDS011;32051;48.882;9.210;2022-11-18T16:38:01;11.52;;;2.85;;
46334;SDS011;32051;48.882;9.210;2022-11-18T16:40:27;2.72;;;2.53;;
46334;SDS011;32051;48.882;9.210;2022-11-18T16:42:53;13.98;;;2.13;;
46334;SDS011;32051;48.882;9.210;2022-11-18T16:45:19;4.32;;;2.28;;
46334;SDS011;32051;48.882;9.210;2022-11-18T16:47:45;3.28;;;1.80;;
46334;SDS011;32051;48.882;9.210;2022-11-18T16:50:11;6.22;;;1.85;;
46334;SDS011;32051;48.882;9.210;2022-11-18T16:52:37;2.90;;;1.67;;
46334;SDS011;32051;48.882;9.210;2022-11-18T16:55:04;3.72;;;1.83;;
46334;SDS011;32051;48.882;9.210;2022-11-18T16:57:30;4.55;;;1.52;;
46334;SDS011;32051;48.882;9.210;2022-11-18T16:59:56;2.92;;;2.30;;
46334;SDS011;32051;48.882;9.210;2022-11-18T17:02:22;3.85;;;2.80;;
46334;SDS011;32051;48.882;9.210;2022-11-18T17:04:48;5.45;;;2.50;;
46334;SDS011;32051;48.882;9.210;2022-11-18T17:07:14;4.53;;;2.28;;
46334;SDS011;32051;48.882;9.210;2022-11-18T17:09:41;10.45;;;3.45;;
46334;SDS011;32051;48.882;9.210;2022-11-18T17:12:08;5.57;;;4.93;;
46334;SDS011;32051;48.882;9.210;2022-11-18T17:14:34;10.07;;;7.80;;
46334;SDS011;32051;48.882;9.210;2022-11-18T17:17:02;4.55;;;3.65;;
46334;SDS011;32051;48.882;9.210;2022-11-18T17:19:28;10.60;;;9.48;;
46334;SDS011;32051;48.882;9.210;2022-11-18T17:21:54;7.30;;;5.53;;
46334;SDS011;32051;48.882;9.210;2022-11-18T17:24:21;2.63;;;2.10;;
46334;SDS011;32051;48.882;9.210;2022-11-18T17:26:48;3.80;;;3.15;;